Time;durP1;ratioP1;P1;durP2;ratioP2;P2;SDS_P1;SDS_P2;PMS_P1;PMS_P2;Temp;Humidity;BMP_temperature;BMP_pressure;BME280_temperature;BME280_humidity;BME280_pressure;Samples;Min_cycle;Max_cycle;Signal;HPM_P1;HPM_P2
2022/06/04 06:10:42;;;;;;;49.45;16.00;;;19.40;99.90;;;;;;5139987;27;20103;-77
2022/06/04 06:13:08;;;;;;;51.17;15.30;;;20.20;99.90;;;;;;5151838;27;20106;-79
2022/06/04 06:15:34;;;;;;;46.88;13.30;;;20.20;99.90;;;;;;5134345;27;20015;-79
2022/06/04 06:18:00;;;;;;;40.78;13.65;;;20.10;99.90;;;;;;5111950;28;20030;-78
2022/06/04 06:20:25;;;;;;;39.05;13.27;;;20.20;99.90;;;;;;5130753;28;20024;-77
2022/06/04 06:22:51;;;;;;;39.92;13.30;;;20.20;99.90;;;;;;5131138;27;20020;-77
2022/06/04 06:25:17;;;;;;;46.40;12.65;;;19.90;99.90;;;;;;5132579;27;20024;-78
2022/06/04 06:27:43;;;;;;;42.08;12.20;;;20.10;99.90;;;;;;5131067;27;20051;-78
2022/06/04 06:30:10;;;;;;;34.92;11.15;;;20.10;99.90;;;;;;5130336;27;20031;-79
2022/06/04 06:32:36;;;;;;;26.27;10.32;;;20.20;99.90;;;;;;5133345;27;20115;-78
2022/06/04 06:35:03;;;;;;;28.65;11.70;;;20.10;99.90;;;;;;5130379;27;20439;-77
2022/06/04 06:37:29;;;;;;;31.00;11.15;;;20.20;99.90;;;;;;5130240;28;20053;-77
2022/06/04 06:39:55;;;;;;;29.50;10.32;;;20.20;99.90;;;;;;5111979;28;20054;-77
2022/06/04 06:42:22;;;;;;;23.65;8.75;;;20.30;99.90;;;;;;5109387;28;20447;-75
2022/06/04 06:44:48;;;;;;;26.23;9.32;;;20.30;99.90;;;;;;5109716;28;20016;-75
2022/06/04 06:47:14;;;;;;;19.98;9.18;;;20.30;99.90;;;;;;5109992;28;20028;-76
2022/06/04 06:49:39;;;;;;;24.98;8.65;;;20.30;99.90;;;;;;5090983;28;20024;-76
2022/06/04 06:52:06;;;;;;;23.73;9.77;;;20.20;99.90;;;;;;5110550;28;20028;-76
2022/06/04 06:54:36;;;;;;;20.08;7.75;;;20.20;99.90;;;;;;5099851;28;20487;-75
2022/06/04 06:57:04;;;;;;;29.92;9.63;;;20.40;99.90;;;;;;5099424;28;20120;-76
2022/06/04 06:59:30;;;;;;;28.58;9.48;;;20.40;99.90;;;;;;5109002;28;20152;-76
2022/06/04 07:01:57;;;;;;;28.25;9.80;;;20.40;99.90;;;;;;5105934;28;20103;-76
2022/06/04 07:04:23;;;;;;;23.80;8.25;;;20.30;99.90;;;;;;5088892;28;20019;-76
2022/06/04 07:06:55;;;;;;;25.52;9.00;;;20.40;99.90;;;;;;5104697;28;20032;-76
2022/06/04 07:09:24;;;;;;;26.73;8.48;;;20.60;99.90;;;;;;5103276;28;20441;-76
2022/06/04 07:11:51;;;;;;;20.35;8.27;;;20.60;99.90;;;;;;5109450;28;20024;-76
2022/06/04 07:14:17;;;;;;;17.60;8.35;;;20.60;99.90;;;;;;5113763;28;20024;-75
2022/06/04 07:16:44;;;;;;;22.90;8.68;;;20.50;99.90;;;;;;5109561;28;20035;-77
2022/06/04 07:19:12;;;;;;;23.00;8.75;;;20.50;99.90;;;;;;5101478;28;20051;-76
2022/06/04 07:21:37;;;;;;;21.33;8.18;;;20.60;99.90;;;;;;5105710;28;20519;-76
2022/06/04 07:24:04;;;;;;;18.25;7.90;;;20.60;99.90;;;;;;5093456;28;20100;-76
2022/06/04 07:26:29;;;;;;;26.15;7.85;;;20.70;99.90;;;;;;5097400;28;20020;-77
2022/06/04 07:28:55;;;;;;;24.33;8.70;;;20.70;99.90;;;;;;5095494;28;20031;-77
2022/06/04 07:31:22;;;;;;;21.23;8.50;;;20.80;99.90;;;;;;5094369;28;20024;-77
2022/06/04 07:33:50;;;;;;;22.08;7.80;;;20.90;99.90;;;;;;5091710;28;20043;-77
2022/06/04 07:36:22;;;;;;;15.35;7.13;;;20.80;99.90;;;;;;5089999;28;20073;-76
2022/06/04 07:38:48;;;;;;;21.67;7.75;;;20.90;99.90;;;;;;5095389;28;20061;-78
2022/06/04 07:41:17;;;;;;;18.55;8.80;;;20.90;99.90;;;;;;5104202;28;20024;-78
2022/06/04 07:43:43;;;;;;;28.30;8.57;;;20.80;99.90;;;;;;5075537;28;20028;-83
2022/06/04 07:46:08;;;;;;;26.45;9.38;;;20.80;99.90;;;;;;5076213;28;20034;-79
2022/06/04 07:48:34;;;;;;;17.67;7.90;;;20.80;99.90;;;;;;5109400;28;20063;-78
2022/06/04 07:51:02;;;;;;;20.10;7.45;;;20.80;99.90;;;;;;5115612;28;20031;-79
2022/06/04 07:53:28;;;;;;;22.83;8.60;;;20.80;99.90;;;;;;5094620;28;20108;-79
2022/06/04 07:55:53;;;;;;;23.17;7.82;;;21.00;99.90;;;;;;5094672;28;20056;-78
2022/06/04 07:58:19;;;;;;;20.90;7.35;;;21.00;99.90;;;;;;5094415;28;20024;-79
2022/06/04 08:00:44;;;;;;;36.42;8.02;;;21.00;99.90;;;;;;5094999;28;20070;-79
2022/06/04 08:03:10;;;;;;;17.73;7.47;;;21.10;99.90;;;;;;5094473;28;20076;-79
2022/06/04 08:05:36;;;;;;;16.77;6.93;;;21.20;99.90;;;;;;5094902;28;20027;-79
2022/06/04 08:08:02;;;;;;;22.88;8.60;;;21.40;99.90;;;;;;5094702;28;20088;-79
2022/06/04 08:10:28;;;;;;;17.50;7.28;;;21.30;99.90;;;;;;5086708;28;20040;-79
2022/06/04 08:12:57;;;;;;;21.60;7.60;;;21.40;99.90;;;;;;5094667;28;20016;-78
2022/06/04 08:15:22;;;;;;;20.65;8.50;;;21.40;99.90;;;;;;5095019;28;20480;-79
2022/06/04 08:17:49;;;;;;;19.90;7.60;;;21.40;99.90;;;;;;5094198;28;20073;-79
2022/06/04 08:20:16;;;;;;;24.63;7.70;;;21.40;99.90;;;;;;5076355;28;20036;-79
2022/06/04 08:22:41;;;;;;;23.30;7.82;;;21.40;99.90;;;;;;5093735;28;20024;-78
2022/06/04 08:25:07;;;;;;;21.08;8.40;;;21.40;99.90;;;;;;5094704;28;20028;-78
2022/06/04 08:27:33;;;;;;;29.13;7.63;;;21.40;99.90;;;;;;5094621;28;20073;-79
2022/06/04 08:29:58;;;;;;;20.75;7.68;;;21.40;99.90;;;;;;5094181;28;20027;-79
2022/06/04 08:32:24;;;;;;;21.13;7.47;;;21.50;99.90;;;;;;5093279;28;20353;-78
2022/06/04 08:34:50;;;;;;;24.42;7.90;;;21.40;99.90;;;;;;5093979;28;20056;-79
2022/06/04 08:37:16;;;;;;;25.42;7.93;;;21.40;99.90;;;;;;5094723;28;20095;-79
2022/06/04 08:39:42;;;;;;;23.48;7.53;;;21.50;99.90;;;;;;5094026;28;20028;-79
2022/06/04 08:42:22;;;;;;;20.83;7.80;;;21.60;99.90;;;;;;5093761;28;20020;-79
2022/06/04 08:44:51;;;;;;;20.92;7.97;;;21.60;99.90;;;;;;5092758;28;20066;-79
2022/06/04 08:47:21;;;;;;;24.45;8.15;;;21.60;99.90;;;;;;5093488;28;20027;-79
2022/06/04 08:49:53;;;;;;;19.05;7.63;;;21.60;99.90;;;;;;5093657;28;20447;-79
2022/06/04 08:52:30;;;;;;;18.13;6.68;;;21.60;99.90;;;;;;5093912;28;20016;-79
2022/06/04 08:58:11;;;;;;;28.73;8.65;;;21.60;99.90;;;;;;5092755;28;20023;-78
2022/06/04 09:00:50;;;;;;;24.77;7.30;;;21.60;99.90;;;;;;5030908;28;20029;-79
2022/06/04 09:03:22;;;;;;;24.42;8.77;;;21.70;99.90;;;;;;5014530;28;20389;-79
2022/06/04 09:05:59;;;;;;;29.92;8.18;;;21.50;99.90;;;;;;5031148;28;20490;-79
2022/06/04 09:08:50;;;;;;;27.45;8.85;;;21.40;99.90;;;;;;5040391;28;20067;-79
2022/06/04 09:11:25;;;;;;;22.60;8.32;;;21.50;99.90;;;;;;5051168;28;20037;-79
2022/06/04 09:14:02;;;;;;;25.90;7.97;;;21.60;99.90;;;;;;5050565;28;20021;-81
2022/06/04 09:16:36;;;;;;;27.30;7.70;;;21.70;99.90;;;;;;5050865;28;20082;-79
2022/06/04 09:19:04;;;;;;;21.02;7.03;;;21.80;99.90;;;;;;5056491;28;20439;-73
2022/06/04 09:21:38;;;;;;;20.27;7.55;;;21.80;99.90;;;;;;5048276;28;20036;-73
2022/06/04 09:24:04;;;;;;;15.40;7.55;;;21.90;99.90;;;;;;5050617;28;20068;-78
2022/06/04 09:26:49;;;;;;;22.42;7.88;;;21.90;99.90;;;;;;5058430;28;20040;-77
2022/06/04 09:29:23;;;;;;;26.15;7.85;;;22.00;99.90;;;;;;5055807;28;20425;-78
2022/06/04 10:19:27;;;;;;;20.20;7.28;;;22.70;99.90;;;;;;5579325;23;20113;-79
2022/06/04 10:22:10;;;;;;;26.35;8.18;;;23.00;99.90;;;;;;4972956;28;20031;-76
2022/06/04 10:24:48;;;;;;;25.75;8.60;;;23.10;99.90;;;;;;4972782;28;20110;-76
2022/06/04 10:27:39;;;;;;;22.15;7.25;;;23.30;99.90;;;;;;4972186;28;20490;-76
2022/06/04 10:30:10;;;;;;;24.77;8.05;;;23.40;99.90;;;;;;4972487;28;20117;-74
2022/06/04 10:32:56;;;;;;;28.92;8.40;;;23.60;99.90;;;;;;4973589;28;20022;-76
2022/06/04 10:36:01;;;;;;;31.35;7.65;;;23.50;99.90;;;;;;4913547;29;20032;-74
2022/06/04 10:38:54;;;;;;;31.15;7.78;;;23.20;99.90;;;;;;4913210;29;20489;-74
2022/06/04 10:41:44;;;;;;;25.35;7.97;;;23.20;99.90;;;;;;4912945;29;20555;-70
2022/06/04 10:44:28;;;;;;;24.13;8.40;;;23.40;99.90;;;;;;4913154;29;20411;-71
2022/06/04 10:47:12;;;;;;;23.98;7.70;;;23.60;99.90;;;;;;4913692;29;20041;-72
2022/06/04 10:50:08;;;;;;;18.30;7.55;;;23.70;99.90;;;;;;4913017;29;20629;-74
2022/06/04 10:52:55;;;;;;;24.55;7.28;;;24.00;99.90;;;;;;4913007;29;20044;-78
2022/06/04 10:55:24;;;;;;;21.48;8.07;;;24.20;99.90;;;;;;4894612;29;20044;-71
2022/06/04 10:57:52;;;;;;;27.23;8.18;;;24.20;99.90;;;;;;4915762;29;20111;-72
2022/06/04 11:00:28;;;;;;;18.15;7.63;;;24.30;99.90;;;;;;4915824;29;20043;-72
2022/06/04 11:03:12;;;;;;;19.80;7.97;;;24.30;99.90;;;;;;4915767;29;20523;-71
2022/06/04 11:05:49;;;;;;;16.80;6.97;;;24.50;99.90;;;;;;4916012;29;20492;-75
2022/06/04 11:08:20;;;;;;;27.50;8.30;;;24.50;99.90;;;;;;4915313;29;20107;-75
2022/06/04 11:10:59;;;;;;;20.87;7.33;;;24.20;99.90;;;;;;4915496;29;20178;-74
2022/06/04 11:13:29;;;;;;;24.77;6.90;;;23.80;99.90;;;;;;4967141;28;20102;-74
2022/06/04 11:16:34;;;;;;;23.88;7.65;;;24.10;99.90;;;;;;4975857;28;20046;-72
2022/06/04 11:19:08;;;;;;;21.90;7.57;;;24.30;99.90;;;;;;4961233;28;20039;-73
2022/06/04 11:21:43;;;;;;;27.50;7.90;;;24.30;99.90;;;;;;4974256;28;20398;-70
2022/06/04 11:24:19;;;;;;;18.90;7.25;;;24.40;99.90;;;;;;4971447;28;20433;-70
2022/06/04 11:27:02;;;;;;;22.90;7.82;;;24.50;99.90;;;;;;4974604;28;20027;-69
2022/06/04 11:29:28;;;;;;;17.67;7.40;;;24.00;99.90;;;;;;4969967;28;20383;-70
2022/06/04 11:32:08;;;;;;;22.88;8.35;;;24.00;99.90;;;;;;4974825;28;20033;-69
2022/06/04 11:35:02;;;;;;;27.73;8.02;;;23.90;99.90;;;;;;4975301;28;20054;-69
2022/06/04 11:37:40;;;;;;;25.70;7.72;;;24.00;99.90;;;;;;4974061;28;20027;-69
2022/06/04 11:40:51;;;;;;;27.08;8.30;;;23.90;99.90;;;;;;4974804;28;20026;-69
2022/06/04 11:43:49;;;;;;;19.58;7.63;;;23.90;99.90;;;;;;4933360;29;20507;-70
2022/06/04 11:46:36;;;;;;;20.23;7.20;;;23.80;99.90;;;;;;4896887;29;20531;-70
2022/06/04 11:49:40;;;;;;;20.98;7.45;;;23.80;99.90;;;;;;4896665;29;20095;-70
2022/06/04 11:52:27;;;;;;;33.15;8.48;;;23.80;99.90;;;;;;4893784;29;20107;-70
2022/06/04 11:55:25;;;;;;;28.50;8.13;;;23.90;99.90;;;;;;4897427;29;20039;-69
2022/06/04 11:58:10;;;;;;;29.35;8.32;;;24.00;99.90;;;;;;4897524;29;20505;-70
2022/06/04 12:00:40;;;;;;;24.00;8.20;;;24.20;99.90;;;;;;4897323;29;20049;-70
2022/06/04 12:03:24;;;;;;;24.73;8.00;;;24.30;99.90;;;;;;4896647;29;20048;-70
2022/06/04 12:06:23;;;;;;;30.67;8.15;;;24.50;99.90;;;;;;4897025;29;20032;-70
2022/06/04 12:09:12;;;;;;;28.92;9.07;;;24.50;99.90;;;;;;4896686;29;20489;-70
2022/06/04 12:11:43;;;;;;;24.10;7.75;;;24.30;99.90;;;;;;4897517;29;20037;-69
2022/06/04 12:14:11;;;;;;;34.15;9.38;;;24.10;99.90;;;;;;4915947;29;20035;-69
2022/06/04 12:17:06;;;;;;;25.30;8.65;;;24.20;99.90;;;;;;4934733;29;20420;-73
2022/06/04 12:25:39;;;;;;;22.38;7.50;;;24.80;99.90;;;;;;4975068;28;20564;-75
2022/06/04 12:28:30;;;;;;;28.27;7.45;;;24.70;99.90;;;;;;4975068;28;20101;-73
2022/06/04 12:31:00;;;;;;;21.38;7.63;;;24.70;99.90;;;;;;4974577;28;20034;-71
2022/06/04 12:33:31;;;;;;;19.67;7.60;;;24.70;99.90;;;;;;4975261;28;20026;-71
2022/06/04 12:36:04;;;;;;;25.00;7.85;;;24.70;99.90;;;;;;4974855;28;20470;-71
2022/06/04 12:38:37;;;;;;;29.98;8.52;;;24.70;99.90;;;;;;4975210;28;20034;-71
2022/06/04 12:41:31;;;;;;;25.08;8.05;;;24.50;99.90;;;;;;4974894;28;20057;-71
2022/06/04 12:43:59;;;;;;;16.50;7.70;;;25.00;99.90;;;;;;4974949;28;20097;-75
2022/06/04 12:46:27;;;;;;;24.90;8.25;;;25.40;99.90;;;;;;4974687;28;20027;-71
2022/06/04 12:49:04;;;;;;;23.55;7.53;;;25.30;99.90;;;;;;4974451;28;20030;-71
2022/06/04 12:51:45;;;;;;;20.10;7.03;;;25.60;99.90;;;;;;4973892;28;20491;-72
2022/06/04 12:54:17;;;;;;;27.38;8.45;;;25.60;99.90;;;;;;4974482;28;20076;-71
2022/06/04 12:56:42;;;;;;;;;;;25.80;99.90;;;;;;4975119;28;20447;-70
2022/06/04 12:59:38;;;;;;;34.05;7.68;;;25.80;99.90;;;;;;4974307;28;19948;-70
2022/06/04 13:02:26;;;;;;;30.67;7.88;;;26.00;99.90;;;;;;4973941;28;20029;-71
2022/06/04 13:05:14;;;;;;;25.05;6.93;;;25.80;99.90;;;;;;4972325;28;20061;-71
2022/06/04 13:08:02;;;;;;;18.35;6.53;;;25.80;99.90;;;;;;4972438;28;20113;-70
2022/06/04 13:10:48;;;;;;;30.30;7.45;;;25.90;99.90;;;;;;4973942;28;20054;-70
2022/06/04 13:13:27;;;;;;;18.88;6.75;;;25.90;99.90;;;;;;4973702;28;20538;-70
2022/06/04 13:15:56;;;;;;;22.77;7.05;;;26.00;99.90;;;;;;4974277;28;20022;-70
2022/06/04 13:18:34;;;;;;;20.55;7.18;;;26.10;99.90;;;;;;4972935;28;20019;-71
2022/06/04 13:21:03;;;;;;;24.55;7.18;;;26.20;99.90;;;;;;4971485;28;20130;-71
2022/06/04 13:23:38;;;;;;;24.83;7.35;;;26.30;99.90;;;;;;4974176;28;20022;-71
2022/06/04 13:26:34;;;;;;;23.60;7.20;;;26.40;99.90;;;;;;4974350;28;20073;-71
2022/06/04 13:29:02;;;;;;;23.92;7.20;;;26.40;99.90;;;;;;4973524;28;20048;-71
2022/06/04 13:31:36;;;;;;;22.38;7.35;;;26.30;99.90;;;;;;4973655;28;20415;-72
2022/06/04 13:34:16;;;;;;;28.13;8.55;;;26.20;99.90;;;;;;4955058;28;20028;-75
2022/06/04 13:36:44;;;;;;;25.17;7.15;;;26.00;99.90;;;;;;4972345;28;20027;-74
2022/06/04 13:39:15;;;;;;;24.42;7.53;;;26.20;99.90;;;;;;4972242;28;20034;-73
2022/06/04 13:42:01;;;;;;;25.83;6.78;;;26.20;99.90;;;;;;4972784;28;20086;-73
2022/06/04 13:44:26;;;;;;;22.45;7.03;;;26.20;99.90;;;;;;4974123;28;20031;-73
2022/06/04 13:46:53;;;;;;;23.20;8.32;;;25.90;99.90;;;;;;4972905;28;20030;-73
2022/06/04 13:49:27;;;;;;;27.45;8.02;;;25.90;99.90;;;;;;4964529;28;20506;-74
2022/06/04 13:52:16;;;;;;;29.75;7.38;;;25.80;99.90;;;;;;4972577;28;20408;-73
2022/06/04 13:55:01;;;;;;;26.20;7.60;;;25.90;99.90;;;;;;4973498;28;20542;-73
2022/06/04 13:57:32;;;;;;;24.67;7.40;;;25.90;99.90;;;;;;4972981;28;20026;-73
2022/06/04 14:00:04;;;;;;;24.70;7.43;;;25.90;99.90;;;;;;4973049;28;20031;-73
2022/06/04 14:02:31;;;;;;;17.77;6.65;;;26.10;99.90;;;;;;4972524;28;20486;-74
2022/06/04 16:32:23;;;;;;;15.07;6.22;;;25.50;99.90;;;;;;4930337;29;20123;-73
2022/06/04 16:34:51;;;;;;;15.13;6.15;;;25.30;99.90;;;;;;4916698;29;20036;-73
2022/06/04 16:37:28;;;;;;;13.57;5.65;;;25.20;99.90;;;;;;4917959;29;20361;-73
2022/06/04 16:39:54;;;;;;;19.70;5.65;;;25.20;99.90;;;;;;4924037;29;20028;-73
2022/06/04 16:42:55;;;;;;;15.70;5.68;;;25.10;99.90;;;;;;4936405;29;20372;-74
2022/06/04 16:45:45;;;;;;;23.08;6.47;;;25.00;99.90;;;;;;4913890;29;20036;-75
2022/06/04 16:48:11;;;;;;;16.42;5.90;;;24.90;99.90;;;;;;4917648;29;20032;-75
2022/06/04 16:50:37;;;;;;;20.30;6.38;;;24.90;99.90;;;;;;4932842;29;20027;-75
2022/06/04 16:53:04;;;;;;;15.50;6.28;;;24.90;99.90;;;;;;4935160;29;20027;-73
2022/06/04 16:55:32;;;;;;;10.05;5.38;;;24.80;99.90;;;;;;4936022;29;20012;-73
2022/06/04 16:58:00;;;;;;;18.58;6.05;;;24.70;99.90;;;;;;4935880;29;20392;-73
2022/06/04 17:00:38;;;;;;;10.45;5.80;;;24.60;99.90;;;;;;4936028;29;20026;-73
2022/06/04 17:03:23;;;;;;;15.90;5.70;;;24.50;99.90;;;;;;4935215;29;20403;-73
2022/06/04 17:05:58;;;;;;;16.38;6.20;;;24.40;99.90;;;;;;4935876;29;20022;-73
2022/06/04 17:08:51;;;;;;;16.45;6.80;;;24.40;99.90;;;;;;4935350;29;20034;-73
2022/06/04 17:11:40;;;;;;;21.00;6.82;;;24.40;99.90;;;;;;4936328;29;20032;-73
2022/06/04 17:14:23;;;;;;;14.77;6.32;;;24.30;99.90;;;;;;4934142;29;20043;-73
2022/06/04 17:17:11;;;;;;;11.77;5.75;;;24.20;99.90;;;;;;4932548;29;20054;-73
2022/06/04 17:20:43;;;;;;;12.07;6.05;;;24.20;99.90;;;;;;5130540;27;20297;-75
2022/06/04 17:23:41;;;;;;;11.68;6.15;;;24.10;99.90;;;;;;5146561;27;20515;-77
2022/06/04 17:26:13;;;;;;;18.70;7.28;;;24.00;99.90;;;;;;5110122;28;20019;-75
2022/06/04 17:29:03;;;;;;;15.00;7.13;;;23.90;99.90;;;;;;5110408;28;20023;-75
2022/06/04 17:31:46;;;;;;;10.18;6.22;;;23.70;99.90;;;;;;5128980;28;20054;-75
2022/06/04 17:34:33;;;;;;;15.65;7.20;;;23.50;99.90;;;;;;5129157;27;20081;-75
2022/06/04 17:37:21;;;;;;;17.38;7.03;;;23.50;99.90;;;;;;5110334;28;20196;-75
2022/06/04 17:40:02;;;;;;;17.60;7.03;;;23.40;99.90;;;;;;5114259;28;20478;-75
2022/06/04 17:42:32;;;;;;;11.90;7.10;;;23.30;99.90;;;;;;5122974;27;20500;-75
2022/06/04 17:44:58;;;;;;;14.70;7.07;;;23.20;99.90;;;;;;5126824;27;20022;-75
2022/06/04 17:47:24;;;;;;;20.55;7.00;;;23.20;99.90;;;;;;5130447;27;20524;-76
2022/06/04 17:49:50;;;;;;;15.68;7.10;;;23.20;99.90;;;;;;5131896;27;20028;-76
2022/06/04 17:52:15;;;;;;;13.75;6.53;;;23.10;99.90;;;;;;5126186;27;20077;-76
2022/06/04 17:54:41;;;;;;;13.25;6.78;;;23.10;99.90;;;;;;5126132;28;20020;-75
2022/06/04 17:57:07;;;;;;;12.23;6.70;;;23.10;99.90;;;;;;5123232;28;20424;-75
2022/06/04 17:59:33;;;;;;;13.45;6.80;;;23.00;99.90;;;;;;5128179;27;20428;-75
2022/06/04 18:01:59;;;;;;;13.48;7.20;;;23.10;99.90;;;;;;5129305;27;20397;-75
2022/06/04 18:04:25;;;;;;;16.27;7.78;;;23.10;99.90;;;;;;5128834;27;20024;-76
2022/06/04 18:06:51;;;;;;;12.80;6.78;;;23.10;99.90;;;;;;5125354;27;20103;-74
2022/06/04 18:09:16;;;;;;;15.13;6.68;;;23.10;99.90;;;;;;5128720;27;20102;-75
2022/06/04 18:11:43;;;;;;;14.75;7.57;;;23.10;99.90;;;;;;5128692;27;20041;-76
2022/06/04 18:14:10;;;;;;;15.52;7.43;;;23.00;99.90;;;;;;5128676;27;20054;-76
2022/06/04 18:16:36;;;;;;;16.23;7.93;;;22.80;99.90;;;;;;5128911;27;20031;-74
2022/06/04 18:19:02;;;;;;;14.13;7.82;;;22.70;99.90;;;;;;5128488;27;20039;-75
2022/06/04 18:21:28;;;;;;;15.10;7.75;;;22.70;99.90;;;;;;5128326;27;20020;-75
2022/06/04 18:23:55;;;;;;;12.88;7.10;;;22.70;99.90;;;;;;5128420;27;20404;-74
2022/06/04 18:26:22;;;;;;;10.35;6.57;;;22.80;99.90;;;;;;5128095;27;20026;-75
2022/06/04 18:28:48;;;;;;;14.95;7.60;;;22.80;99.90;;;;;;5124224;28;20016;-75
2022/06/04 18:31:22;;;;;;;19.48;7.82;;;22.80;99.90;;;;;;5117719;27;20089;-75
2022/06/04 18:33:50;;;;;;;11.50;7.50;;;22.70;99.90;;;;;;5113508;28;20020;-75
2022/06/04 18:36:17;;;;;;;18.88;7.05;;;22.70;99.90;;;;;;5113830;28;20074;-75
2022/06/04 18:38:44;;;;;;;12.00;7.25;;;22.70;99.90;;;;;;5114795;28;20012;-75
2022/06/04 18:41:12;;;;;;;20.10;7.68;;;22.60;99.90;;;;;;5113406;28;20020;-75
